METAR Data
IDs: Format: Raw Decoded Include TAF

Data at: 2214 UTC 24 Mar 2019

KDHT 242153Z AUTO 15007KT 10SM CLR 17/02 A3006 RMK AO2 SLP158 T01720022
KDHT 242053Z AUTO 15009G14KT 120V180 10SM CLR 17/03 A3007 RMK AO2 SLP160 T01720028 57013
KDHT 241953Z AUTO 14006G16KT 10SM CLR 16/03 A3009 RMK AO2 SLP166 T01610028
KDHT 241853Z AUTO 14004KT 10SM CLR 14/02 A3010 RMK AO2 SLP172 T01440017
KDHT 241753Z AUTO 14004KT 10SM CLR 14/01 A3011 RMK AO2 SLP177 T01390011 10144 20017 50001
KDHT 241653Z AUTO 05006KT 10SM CLR 13/02 A3012 RMK AO2 SLP177 T01280022
KDHT 241553Z AUTO 02003KT 10SM CLR 11/02 A3012 RMK AO2 SLP182 T01110022
KDHT 241453Z AUTO 33006KT 10SM CLR 07/02 A3011 RMK AO2 SLP182 T00720022 52014
KDHT 241353Z AUTO 32007KT 10SM CLR 04/01 A3010 RMK AO2 SLP179 T00390006
KDHT 241253Z AUTO 33005KT 10SM CLR 02/M01 A3008 RMK AO2 SLP171 T00221006
KDHT 241153Z AUTO 34006KT 10SM CLR 02/M01 A3007 RMK AO2 SLP159 T00221006 10061 20022 51007
KDHT 241053Z AUTO 32007KT 10SM CLR 02/00 A3006 RMK AO2 SLP158 T00220000
KDHT 240953Z AUTO 32006KT 10SM CLR 03/00 A3005 RMK AO2 SLP154 T00330000
KDHT 240853Z AUTO 35007KT 10SM CLR 04/01 A3004 RMK AO2 SLP150 T00440006 53003
KDHT 240753Z AUTO 34009KT 10SM CLR 04/01 A3004 RMK AO2 SLP150 T00440011
KDHT 240653Z AUTO 35011KT 10SM CLR 05/01 A3003 RMK AO2 SLP146 T00500011
KDHT 240553Z AUTO 36014KT 10SM CLR 06/02 A3003 RMK AO2 SLP150 T00610017 10183 20061 401890006 51024
KDHT 240453Z AUTO 02015KT 10SM CLR 08/03 A3002 RMK AO2 PK WND 35030/0419 SLP144 T00780028
KDHT 240353Z AUTO 17007KT 10SM CLR 07/00 A2999 RMK AO2 SLP138 T00720000
KDHT 240253Z AUTO 00000KT 10SM CLR 09/01 A2995 RMK AO2 SLP127 T00940006 53018
KDHT 240153Z AUTO 13008KT 10SM BKN110 11/02 A2993 RMK AO2 SLP121 T01110022
KDHT 240053Z AUTO 13008KT 10SM CLR 14/01 A2991 RMK AO2 SLP112 T01440011
KDHT 232353Z AUTO 23005KT 10SM CLR 18/M06 A2989 RMK AO2 SLP101 T01831061 10189 20133 56010
KDHT 232253Z AUTO 00000KT 10SM CLR 18/M05 A2990 RMK AO2 SLP103 T01831050
KDHT 232153Z AUTO 22008KT 10SM CLR 18/M06 A2992 RMK AO2 SLP107 T01831056
KDHT 232053Z AUTO 28007KT 10SM CLR 18/M05 A2993 RMK AO2 SLP110 T01781050 56014
KDHT 231953Z AUTO 29008KT 10SM CLR 17/M04 A2994 RMK AO2 SLP117 T01671039
KDHT 231853Z AUTO 27010KT 10SM CLR 17/M03 A2996 RMK AO2 SLP124 T01671033
KDHT 231753Z AUTO 23006KT 10SM CLR 13/M02 A2997 RMK AO2 SLP133 T01331017 10139 20006 56009
KDHT 231653Z AUTO 28007KT 10SM CLR 13/00 A2998 RMK AO2 SLP138 T01280000
KDHT 231553Z AUTO VRB03KT 10SM CLR 09/03 A2998 RMK AO2 SLP141 T00940033
KDHT 231453Z AUTO 31006KT 10SM CLR 07/02 A3000 RMK AO2 SLP150 T00670022 51013
KDHT 231353Z AUTO 33006KT 10SM CLR 03/00 A2999 RMK AO2 SLP148 T00330000
KDHT 231253Z AUTO 32007KT 10SM CLR 01/M02 A2998 RMK AO2 SLP144 T00111017
KDHT 231153Z AUTO 32008KT 10SM CLR 01/M01 A2996 RMK AO2 SLP138 70044 T00111011 10039 20011 53010
KDHT 231053Z AUTO 30008KT 10SM CLR 02/00 A2995 RMK AO2 SLP135 T00170000